createdAt,value
2019-01-23T00:01:29.837Z,18.00
2019-01-23T00:04:00.627Z,17.90
2019-01-23T00:06:31.985Z,18.00
2019-01-23T00:09:02.968Z,17.90
2019-01-23T00:11:34.810Z,17.90
2019-01-23T00:14:06.013Z,17.90
2019-01-23T00:16:36.426Z,17.90
2019-01-23T00:19:07.542Z,17.90
2019-01-23T00:21:37.942Z,17.90
2019-01-23T00:24:08.659Z,17.90
2019-01-23T00:26:38.979Z,17.90
2019-01-23T00:29:09.659Z,17.90
2019-01-23T00:31:39.956Z,17.90
2019-01-23T00:34:11.018Z,17.90
2019-01-23T00:36:41.518Z,17.90
2019-01-23T00:39:12.386Z,17.90
2019-01-23T00:41:42.994Z,17.90
2019-01-23T00:44:13.667Z,17.90
2019-01-23T00:46:44.062Z,17.90
2019-01-23T00:49:14.510Z,17.90
2019-01-23T00:51:45.117Z,17.80
2019-01-23T00:54:15.869Z,17.90
2019-01-23T00:56:46.568Z,17.80
2019-01-23T00:59:17.236Z,17.80
2019-01-23T01:01:48.496Z,17.80
2019-01-23T01:04:19.151Z,17.80
2019-01-23T01:06:49.915Z,17.80
2019-01-23T01:09:20.587Z,17.80
2019-01-23T01:11:51.510Z,17.80
2019-01-23T01:14:22.007Z,17.80
2019-01-23T01:16:52.638Z,17.80
2019-01-23T01:19:23.324Z,17.80
2019-01-23T01:21:54.005Z,17.80
2019-01-23T01:24:24.673Z,17.80
2019-01-23T01:26:55.311Z,17.80
2019-01-23T01:29:25.738Z,17.80
2019-01-23T01:31:56.567Z,17.80
2019-01-23T01:34:27.730Z,17.70
2019-01-23T01:36:59.395Z,17.70
2019-01-23T01:39:30.306Z,17.70
2019-01-23T01:42:01.557Z,17.70
2019-01-23T01:44:32.598Z,17.80
2019-01-23T01:47:03.456Z,17.70
2019-01-23T01:49:34.585Z,17.80
2019-01-23T01:52:05.726Z,17.70
2019-01-23T01:54:36.566Z,17.70
2019-01-23T01:57:08.322Z,17.70
2019-01-23T01:59:38.726Z,17.70
2019-01-23T02:02:09.994Z,17.70
2019-01-23T02:04:40.412Z,17.70
2019-01-23T02:07:11.006Z,17.70
2019-01-23T02:09:45.456Z,17.70
2019-01-23T02:12:14.254Z,17.70
2019-01-23T02:14:44.611Z,17.70
2019-01-23T02:17:15.622Z,17.70
2019-01-23T02:19:45.942Z,17.70
2019-01-23T02:22:16.685Z,17.70
2019-01-23T02:24:47.094Z,17.70
2019-01-23T02:27:17.741Z,17.70
2019-01-23T02:29:48.156Z,17.70
2019-01-23T02:32:19.126Z,17.70
2019-01-23T02:34:50.557Z,17.70
2019-01-23T02:37:21.511Z,17.70
2019-01-23T02:39:52.302Z,17.70
2019-01-23T02:42:22.557Z,17.70
2019-01-23T02:44:53.590Z,17.70
2019-01-23T02:47:23.924Z,17.70
2019-01-23T02:49:54.963Z,17.70
2019-01-23T02:52:25.381Z,17.70
2019-01-23T02:54:56.080Z,17.70
2019-01-23T02:57:26.400Z,17.70
2019-01-23T02:59:57.436Z,17.60
2019-01-23T03:02:28.047Z,17.60
2019-01-23T03:04:58.854Z,17.60
2019-01-23T03:07:29.267Z,17.60
2019-01-23T03:09:59.908Z,17.60
2019-01-23T03:12:30.214Z,17.60
2019-01-23T03:15:01.885Z,17.60
2019-01-23T03:17:33.069Z,17.60
2019-01-23T03:20:04.461Z,17.60
2019-01-23T03:22:35.621Z,17.60
2019-01-23T03:25:07.927Z,17.60
2019-01-23T03:27:39.176Z,17.60
2019-01-23T03:30:12.931Z,17.60
2019-01-23T03:32:44.223Z,17.60
2019-01-23T03:35:15.348Z,17.60
2019-01-23T03:37:46.185Z,17.60
2019-01-23T03:40:19.383Z,17.60
2019-01-23T03:42:51.557Z,17.60
2019-01-23T03:45:22.684Z,17.60
2019-01-23T03:47:53.828Z,17.60
2019-01-23T03:50:24.967Z,17.60
2019-01-23T03:52:56.417Z,17.60
2019-01-23T03:55:27.451Z,17.50
2019-01-23T03:57:58.534Z,17.50
2019-01-23T04:00:29.423Z,17.50
2019-01-23T04:03:00.381Z,17.50
2019-01-23T04:05:31.174Z,17.50
2019-01-23T04:08:02.370Z,17.50
2019-01-23T04:10:32.754Z,17.50
2019-01-23T04:13:03.585Z,17.50
2019-01-23T04:15:33.843Z,17.50
2019-01-23T04:18:04.481Z,17.50
2019-01-23T04:20:35.448Z,17.50
2019-01-23T04:23:06.185Z,17.50
2019-01-23T04:25:36.670Z,17.50
2019-01-23T04:28:07.511Z,17.50
2019-01-23T04:30:37.927Z,17.50
2019-01-23T04:33:08.886Z,17.50
2019-01-23T04:35:40.343Z,17.50
2019-01-23T04:38:11.529Z,17.50
2019-01-23T04:40:42.616Z,17.50
2019-01-23T04:43:14.067Z,17.50
2019-01-23T04:45:45.839Z,17.50
2019-01-23T04:48:17.274Z,17.50
2019-01-23T04:51:05.938Z,17.50
2019-01-23T04:53:40.519Z,17.50
2019-01-23T04:56:11.290Z,17.50
2019-01-23T04:58:42.365Z,17.50
2019-01-23T05:01:13.583Z,17.50
2019-01-23T05:03:44.684Z,17.50
2019-01-23T05:06:15.863Z,17.50
2019-01-23T05:08:47.275Z,17.50
2019-01-23T05:11:18.149Z,17.40
2019-01-23T05:13:49.155Z,17.40
2019-01-23T05:16:19.830Z,17.40
2019-01-23T05:18:50.969Z,17.40
2019-01-23T05:21:22.042Z,17.40
2019-01-23T05:23:53.494Z,17.40
2019-01-23T05:26:24.401Z,17.40
2019-01-23T05:28:55.926Z,17.40
2019-01-23T05:31:26.693Z,17.40
2019-01-23T05:33:57.522Z,17.40
2019-01-23T05:36:28.173Z,17.40
2019-01-23T05:38:59.189Z,17.40
2019-01-23T05:41:29.526Z,17.40
2019-01-23T05:44:00.567Z,17.40
2019-01-23T05:46:30.922Z,17.40
2019-01-23T05:49:01.926Z,17.40
2019-01-23T05:51:33.203Z,17.40
2019-01-23T05:54:03.902Z,17.40
2019-01-23T05:56:34.315Z,17.40
2019-01-23T05:59:05.216Z,17.40
2019-01-23T06:01:35.690Z,17.40
2019-01-23T06:04:06.334Z,17.40
2019-01-23T06:06:36.775Z,17.40
2019-01-23T06:09:10.022Z,17.40
2019-01-23T06:11:40.373Z,17.40
2019-01-23T06:14:11.229Z,17.40
2019-01-23T06:16:41.657Z,17.40
2019-01-23T06:19:12.475Z,17.40
2019-01-23T06:21:42.686Z,17.40
2019-01-23T06:24:46.678Z,17.40
2019-01-23T06:27:17.033Z,17.40
2019-01-23T06:29:47.785Z,17.40
2019-01-23T06:32:18.127Z,17.40
2019-01-23T06:34:50.836Z,17.40
2019-01-23T06:37:21.626Z,17.40
2019-01-23T06:39:57.967Z,17.40
2019-01-23T06:42:31.586Z,17.40
2019-01-23T06:45:03.040Z,17.40
2019-01-23T06:47:35.100Z,17.40
2019-01-23T06:50:08.051Z,17.40
2019-01-23T06:52:38.708Z,17.40
2019-01-23T06:55:11.762Z,17.50
2019-01-23T06:57:43.157Z,17.50
2019-01-23T07:00:23.011Z,17.50
2019-01-23T07:02:54.763Z,17.50
2019-01-23T07:05:25.501Z,17.50
2019-01-23T07:08:06.816Z,17.50
2019-01-23T07:10:51.568Z,17.50
2019-01-23T07:13:23.110Z,17.50
2019-01-23T07:15:53.581Z,17.50
2019-01-23T07:18:24.530Z,17.50
2019-01-23T07:20:55.710Z,17.60
2019-01-23T07:23:30.848Z,17.60
2019-01-23T07:26:01.226Z,17.60
2019-01-23T07:28:32.211Z,17.60
2019-01-23T07:31:02.606Z,17.60
2019-01-23T07:33:33.269Z,17.60
2019-01-23T07:36:03.713Z,17.60
2019-01-23T07:38:34.531Z,17.60
2019-01-23T07:41:05.200Z,17.70
2019-01-23T07:43:36.279Z,17.70
2019-01-23T07:46:06.603Z,17.70
2019-01-23T07:48:37.657Z,17.70
2019-01-23T07:51:07.953Z,17.70
2019-01-23T07:53:39.256Z,17.70
2019-01-23T07:56:09.563Z,17.70
2019-01-23T07:58:40.866Z,17.70
2019-01-23T08:01:11.167Z,17.80
2019-01-23T08:03:42.179Z,17.80
2019-01-23T08:06:12.571Z,17.80
2019-01-23T08:08:43.242Z,17.80
2019-01-23T08:11:13.513Z,17.80
2019-01-23T08:13:44.351Z,17.80
2019-01-23T08:16:14.771Z,17.90
2019-01-23T08:18:45.970Z,17.90
2019-01-23T08:21:16.265Z,17.90
2019-01-23T08:23:47.111Z,17.90
2019-01-23T08:26:17.393Z,17.90
2019-01-23T08:28:48.407Z,17.90
2019-01-23T08:31:18.788Z,18.00
2019-01-23T08:33:49.689Z,18.00
2019-01-23T08:36:21.078Z,18.00
2019-01-23T08:38:52.266Z,18.00
2019-01-23T08:41:22.639Z,18.10
2019-01-23T08:43:54.608Z,18.10
2019-01-23T08:46:24.923Z,18.10
2019-01-23T08:48:55.902Z,18.10
2019-01-23T08:51:26.294Z,18.10
2019-01-23T08:53:57.265Z,18.20
2019-01-23T08:56:27.558Z,18.20
2019-01-23T08:58:58.331Z,18.30
2019-01-23T09:01:28.618Z,18.30
2019-01-23T09:03:59.694Z,18.30
2019-01-23T09:06:30.001Z,18.40
2019-01-23T09:09:01.370Z,18.40
2019-01-23T09:11:35.532Z,18.40
2019-01-23T09:14:08.731Z,18.40
2019-01-23T09:16:39.266Z,18.40
2019-01-23T09:19:10.449Z,18.40
2019-01-23T09:21:40.729Z,18.40
2019-01-23T09:24:14.872Z,18.40
2019-01-23T09:26:45.226Z,18.40
2019-01-23T09:29:15.856Z,18.40
2019-01-23T09:32:35.994Z,18.40
2019-01-23T09:35:42.126Z,18.40
2019-01-23T09:39:12.738Z,18.40
2019-01-23T09:42:36.112Z,18.40
2019-01-23T09:45:42.989Z,18.40
2019-01-23T09:48:42.081Z,18.50
2019-01-23T09:51:50.927Z,18.50
2019-01-23T09:54:23.993Z,18.50
2019-01-23T09:56:55.059Z,18.40
2019-01-23T09:59:25.678Z,18.50
2019-01-23T10:01:56.931Z,18.50
2019-01-23T10:04:27.241Z,18.50
2019-01-23T10:06:58.284Z,18.50
2019-01-23T10:09:28.689Z,18.50
2019-01-23T10:12:00.271Z,18.50
2019-01-23T10:14:30.651Z,18.60
2019-01-23T10:17:02.858Z,18.60
2019-01-23T10:19:33.242Z,18.60
2019-01-23T10:22:04.830Z,18.60
2019-01-23T10:24:35.953Z,18.60
2019-01-23T10:27:07.143Z,18.60
2019-01-23T10:29:38.134Z,18.60
2019-01-23T10:32:10.033Z,18.60
2019-01-23T10:34:40.745Z,18.60
2019-01-23T10:37:11.534Z,18.60
2019-01-23T10:39:42.336Z,18.60
2019-01-23T10:42:13.969Z,18.70
2019-01-23T10:44:45.290Z,18.70
2019-01-23T10:47:16.346Z,18.70
2019-01-23T10:49:47.973Z,18.60
2019-01-23T10:52:19.084Z,18.70
2019-01-23T10:54:49.431Z,18.70
2019-01-23T10:57:20.190Z,18.70
2019-01-23T10:59:50.562Z,18.60
2019-01-23T11:02:21.803Z,18.70
2019-01-23T11:04:52.408Z,18.70
2019-01-23T11:07:23.792Z,18.70
2019-01-23T11:10:30.645Z,18.70
2019-01-23T11:13:01.469Z,18.70
2019-01-23T11:15:32.079Z,18.70
2019-01-23T11:18:03.116Z,18.70
2019-01-23T11:20:33.516Z,18.70
2019-01-23T11:23:04.382Z,18.70
2019-01-23T11:25:35.039Z,18.70
2019-01-23T11:28:06.063Z,18.70
2019-01-23T11:30:36.665Z,18.70
2019-01-23T11:33:07.582Z,18.80
2019-01-23T11:35:38.141Z,18.80
2019-01-23T11:38:09.152Z,18.80
2019-01-23T11:40:40.046Z,18.80
2019-01-23T11:43:11.438Z,18.80
2019-01-23T11:45:42.696Z,18.80
2019-01-23T11:48:14.039Z,18.80
2019-01-23T11:50:44.883Z,18.80
2019-01-23T11:53:15.917Z,18.80
2019-01-23T11:55:46.966Z,18.80
2019-01-23T11:58:17.613Z,18.90
2019-01-23T12:00:48.241Z,18.90
2019-01-23T12:03:21.029Z,18.90
2019-01-23T12:05:52.239Z,19.00
2019-01-23T12:08:22.662Z,19.00
2019-01-23T12:10:54.855Z,19.00
2019-01-23T12:13:25.276Z,19.10
2019-01-23T12:15:56.222Z,19.10
2019-01-23T12:18:26.687Z,19.10
2019-01-23T12:20:57.847Z,19.10
2019-01-23T12:23:28.295Z,19.10
2019-01-23T12:25:59.222Z,19.10
2019-01-23T12:28:29.509Z,19.10
2019-01-23T12:31:00.096Z,19.10
2019-01-23T12:33:30.563Z,19.10
2019-01-23T12:36:01.693Z,19.10
2019-01-23T12:38:32.608Z,19.10
2019-01-23T12:41:03.809Z,19.10
2019-01-23T12:43:36.305Z,19.10
2019-01-23T12:46:07.679Z,19.10
2019-01-23T12:48:39.782Z,19.20
2019-01-23T12:51:11.221Z,19.20
2019-01-23T12:53:44.182Z,19.20
2019-01-23T12:56:15.605Z,19.20
2019-01-23T12:58:46.581Z,19.20
2019-01-23T13:01:18.633Z,19.20
2019-01-23T13:03:50.698Z,19.20
2019-01-23T13:06:21.738Z,19.20
2019-01-23T13:08:52.987Z,19.20
2019-01-23T13:11:24.114Z,19.30
2019-01-23T13:13:55.330Z,19.50
2019-01-23T13:16:26.777Z,19.60
2019-01-23T13:18:57.952Z,19.80
2019-01-23T13:21:28.971Z,19.90
2019-01-23T13:23:59.774Z,20.00
2019-01-23T13:26:31.246Z,20.10
2019-01-23T13:29:03.881Z,20.10
2019-01-23T13:31:35.631Z,20.20
2019-01-23T13:34:07.385Z,20.30
2019-01-23T13:36:39.885Z,20.40
2019-01-23T13:39:15.850Z,20.50
2019-01-23T13:41:46.966Z,20.60
2019-01-23T13:44:18.111Z,20.70
2019-01-23T13:46:49.384Z,20.70
2019-01-23T13:49:20.395Z,20.70
2019-01-23T13:51:51.703Z,20.70
2019-01-23T13:54:22.604Z,20.80
2019-01-23T13:56:53.869Z,20.80
2019-01-23T13:59:24.962Z,20.90
2019-01-23T14:01:56.643Z,20.90
2019-01-23T14:04:32.697Z,20.80
2019-01-23T14:07:03.869Z,20.80
2019-01-23T14:09:35.389Z,20.80
2019-01-23T14:12:06.246Z,20.90
2019-01-23T14:14:37.683Z,20.90
2019-01-23T14:17:09.008Z,20.90
2019-01-23T14:19:41.788Z,20.90
2019-01-23T14:22:12.942Z,21.00
2019-01-23T14:24:44.093Z,21.10
2019-01-23T14:27:15.591Z,21.20
2019-01-23T14:29:46.118Z,21.30
2019-01-23T14:32:16.929Z,21.20
2019-01-23T14:34:47.445Z,21.10
2019-01-23T14:37:18.165Z,20.90
2019-01-23T14:39:49.113Z,20.80
2019-01-23T14:42:20.255Z,20.60
2019-01-23T14:44:52.345Z,20.50
2019-01-23T14:47:23.212Z,20.40
2019-01-23T14:49:54.598Z,20.20
2019-01-23T14:52:25.679Z,20.20
2019-01-23T14:54:56.932Z,20.10
2019-01-23T14:57:28.347Z,20.00
2019-01-23T15:00:00.218Z,19.90
2019-01-23T15:02:30.817Z,19.90
2019-01-23T15:05:01.510Z,19.80
2019-01-23T15:07:31.958Z,19.80
2019-01-23T15:10:03.289Z,19.70
2019-01-23T15:12:34.046Z,19.70
2019-01-23T15:15:05.322Z,19.60
2019-01-23T15:17:35.712Z,19.60
2019-01-23T15:20:09.799Z,19.60
2019-01-23T15:22:40.241Z,19.50
2019-01-23T15:25:11.402Z,19.50
2019-01-23T15:27:42.341Z,19.50
2019-01-23T15:30:14.783Z,19.50
2019-01-23T15:32:45.181Z,19.40
2019-01-23T15:35:17.889Z,19.40
2019-01-23T15:37:48.760Z,19.40
2019-01-23T15:40:22.586Z,19.30
2019-01-23T15:42:54.692Z,19.30
2019-01-23T15:45:25.788Z,19.30
2019-01-23T15:47:56.623Z,19.30
2019-01-23T15:50:27.990Z,19.30
2019-01-23T15:52:59.826Z,19.20
2019-01-23T15:55:30.532Z,19.20
2019-01-23T15:58:01.491Z,19.20
2019-01-23T16:00:33.266Z,19.20
2019-01-23T16:03:04.084Z,19.20
2019-01-23T16:05:34.799Z,19.20
2019-01-23T16:08:05.228Z,19.20
2019-01-23T16:10:36.910Z,19.20
2019-01-23T16:13:07.459Z,19.20
2019-01-23T16:15:38.157Z,19.10
2019-01-23T16:18:09.019Z,19.10
2019-01-23T16:20:41.605Z,19.10
2019-01-23T16:23:12.491Z,19.10
2019-01-23T16:25:44.475Z,19.10
2019-01-23T16:28:15.119Z,19.10
2019-01-23T16:30:45.598Z,19.10
2019-01-23T16:33:16.646Z,19.00
2019-01-23T16:35:47.273Z,19.00
2019-01-23T16:38:18.580Z,19.00
2019-01-23T16:40:49.409Z,19.00
2019-01-23T16:43:20.570Z,19.00
2019-01-23T16:45:52.094Z,19.00
2019-01-23T16:48:23.105Z,19.00
2019-01-23T16:50:54.799Z,19.00
2019-01-23T16:53:28.755Z,19.00
2019-01-23T16:56:00.386Z,19.00
2019-01-23T16:58:30.885Z,19.00
2019-01-23T17:01:03.911Z,19.00
2019-01-23T17:03:34.639Z,19.00
2019-01-23T17:06:06.799Z,19.00
2019-01-23T17:08:37.300Z,19.00
2019-01-23T17:11:08.857Z,19.00
2019-01-23T17:13:44.579Z,19.00
2019-01-23T17:16:15.238Z,18.90
2019-01-23T17:18:46.072Z,18.90
2019-01-23T17:21:17.594Z,18.80
2019-01-23T17:23:48.879Z,18.80
2019-01-23T17:26:19.386Z,18.80
2019-01-23T17:28:50.275Z,18.80
2019-01-23T17:31:21.509Z,18.80
2019-01-23T17:33:52.935Z,18.80
2019-01-23T17:36:23.443Z,18.70
2019-01-23T17:38:54.348Z,18.70
2019-01-23T17:41:26.161Z,18.70
2019-01-23T17:43:57.629Z,18.70
2019-01-23T17:46:28.621Z,18.70
2019-01-23T17:49:00.006Z,18.70
2019-01-23T17:51:31.767Z,18.70
2019-01-23T17:54:02.819Z,18.70
2019-01-23T17:56:34.896Z,18.70
2019-01-23T17:59:06.883Z,18.70
2019-01-23T18:01:37.940Z,18.70
2019-01-23T18:04:08.825Z,18.70
2019-01-23T18:06:39.994Z,18.70
2019-01-23T18:09:11.159Z,18.70
2019-01-23T18:11:42.170Z,18.70
2019-01-23T18:14:13.306Z,18.60
2019-01-23T18:16:44.491Z,18.60
2019-01-23T18:19:16.027Z,18.60
2019-01-23T18:21:47.645Z,18.60
2019-01-23T18:24:19.025Z,18.60
2019-01-23T18:26:50.494Z,18.60
2019-01-23T18:29:21.577Z,18.60
2019-01-23T18:31:56.739Z,18.60
2019-01-23T18:35:00.224Z,18.60
2019-01-23T18:38:02.287Z,18.60
2019-01-23T18:41:10.686Z,18.60
2019-01-23T18:44:12.843Z,18.60
2019-01-23T18:46:58.700Z,18.50
2019-01-23T18:49:42.771Z,18.50
2019-01-23T18:52:14.772Z,18.50
2019-01-23T18:54:45.990Z,18.50
2019-01-23T18:57:19.894Z,18.50
2019-01-23T18:59:50.717Z,18.50
2019-01-23T19:02:21.221Z,18.50
2019-01-23T19:04:52.339Z,18.50
2019-01-23T19:07:23.179Z,18.50
2019-01-23T19:09:54.085Z,18.50
2019-01-23T19:12:25.155Z,18.50
2019-01-23T19:14:56.606Z,18.50
2019-01-23T19:17:27.240Z,18.50
2019-01-23T19:19:58.619Z,18.50
2019-01-23T19:22:29.079Z,18.40
2019-01-23T19:24:59.907Z,18.40
2019-01-23T19:27:30.714Z,18.40
2019-01-23T19:30:08.945Z,18.40
2019-01-23T19:32:34.709Z,18.40
2019-01-23T19:35:06.707Z,18.40
2019-01-23T19:37:37.303Z,18.40
2019-01-23T19:40:09.538Z,18.40
2019-01-23T19:42:40.622Z,18.40
2019-01-23T19:45:21.494Z,18.40
2019-01-23T19:47:53.006Z,18.40
2019-01-23T19:50:24.406Z,18.40
2019-01-23T19:52:55.753Z,18.40
2019-01-23T19:55:28.523Z,18.40
2019-01-23T19:57:59.987Z,18.40
2019-01-23T20:00:31.173Z,18.40
2019-01-23T20:03:02.874Z,18.40
2019-01-23T20:05:34.643Z,18.40
2019-01-23T20:08:06.180Z,18.40
2019-01-23T20:10:37.600Z,18.40
2019-01-23T20:13:08.528Z,18.30
2019-01-23T20:15:39.934Z,18.30
2019-01-23T20:18:12.158Z,18.30
2019-01-23T20:20:43.088Z,18.30
2019-01-23T20:23:14.828Z,18.30
2019-01-23T20:25:49.089Z,18.30
2019-01-23T20:28:20.190Z,18.30
2019-01-23T20:30:51.498Z,18.30
2019-01-23T20:33:27.925Z,18.30
2019-01-23T20:35:55.636Z,18.30
2019-01-23T20:38:26.200Z,18.30
2019-01-23T20:40:57.658Z,18.20
2019-01-23T20:43:30.017Z,18.20
2019-01-23T20:46:01.309Z,18.30
2019-01-23T20:48:32.424Z,18.20
2019-01-23T20:51:04.718Z,18.30
2019-01-23T20:53:36.266Z,18.20
2019-01-23T20:56:09.411Z,18.20
2019-01-23T20:58:42.485Z,18.20
2019-01-23T21:01:13.937Z,18.20
2019-01-23T21:03:45.567Z,18.20
2019-01-23T21:06:16.889Z,18.20
2019-01-23T21:08:48.635Z,18.20
2019-01-23T21:11:20.094Z,18.20
2019-01-23T21:13:51.017Z,18.20
2019-01-23T21:16:23.549Z,18.20
2019-01-23T21:18:55.063Z,18.20
2019-01-23T21:21:26.240Z,18.20
2019-01-23T21:23:58.431Z,18.20
2019-01-23T21:26:29.757Z,18.20
2019-01-23T21:29:01.221Z,18.20
2019-01-23T21:31:32.349Z,18.20
2019-01-23T21:34:03.811Z,18.20
2019-01-23T21:36:35.058Z,18.20
2019-01-23T21:39:09.015Z,18.20
2019-01-23T21:41:40.348Z,18.20
2019-01-23T21:44:11.170Z,18.10
2019-01-23T21:46:41.994Z,18.10
2019-01-23T21:49:12.705Z,18.10
2019-01-23T21:51:44.276Z,18.10
2019-01-23T21:54:14.997Z,18.10
2019-01-23T21:56:46.086Z,18.10
2019-01-23T21:59:16.783Z,18.10
2019-01-23T22:01:47.295Z,18.10
2019-01-23T22:04:17.871Z,18.10
2019-01-23T22:06:48.468Z,18.10
2019-01-23T22:09:20.718Z,18.10
2019-01-23T22:11:52.204Z,18.00
2019-01-23T22:14:23.347Z,18.00
2019-01-23T22:16:54.789Z,18.00
2019-01-23T22:19:26.363Z,18.00
2019-01-23T22:21:57.591Z,18.00
2019-01-23T22:24:28.800Z,18.00
2019-01-23T22:26:59.840Z,18.00
2019-01-23T22:29:31.441Z,18.00
2019-01-23T22:32:02.671Z,18.00
2019-01-23T22:34:33.868Z,18.00
2019-01-23T22:37:05.333Z,18.00
2019-01-23T22:39:38.661Z,18.00
2019-01-23T22:42:10.062Z,18.00
2019-01-23T22:44:40.950Z,18.00
2019-01-23T22:47:12.067Z,18.10
2019-01-23T22:49:43.182Z,18.10
2019-01-23T22:52:14.629Z,18.10
2019-01-23T22:54:46.082Z,18.10
2019-01-23T22:57:17.257Z,18.10
2019-01-23T22:59:48.205Z,18.10
2019-01-23T23:02:18.595Z,18.10
2019-01-23T23:04:49.303Z,18.10
2019-01-23T23:07:19.755Z,18.10
2019-01-23T23:09:50.692Z,18.00
2019-01-23T23:12:21.121Z,18.00
2019-01-23T23:14:52.039Z,18.00
2019-01-23T23:17:22.497Z,18.00
2019-01-23T23:19:53.260Z,18.00
2019-01-23T23:22:23.930Z,18.00
2019-01-23T23:24:54.648Z,18.00
2019-01-23T23:27:25.034Z,18.00
2019-01-23T23:29:55.693Z,17.90
2019-01-23T23:32:26.351Z,17.90
2019-01-23T23:34:59.689Z,17.90
2019-01-23T23:37:30.278Z,17.90
2019-01-23T23:40:00.981Z,17.90
2019-01-23T23:42:31.641Z,17.90
2019-01-23T23:45:02.802Z,17.90
2019-01-23T23:47:34.323Z,17.90
2019-01-23T23:50:08.054Z,17.90
2019-01-23T23:52:39.285Z,17.90
2019-01-23T23:55:11.354Z,17.80
2019-01-23T23:57:44.118Z,17.90
